Time;durP1;ratioP1;P1;durP2;ratioP2;P2;SDS_P1;SDS_P2;PMS_P1;PMS_P2;Temp;Humidity;BMP_temperature;BMP_pressure;BME280_temperature;BME280_humidity;BME280_pressure;Samples;Min_cycle;Max_cycle;Signal;HPM_P1;HPM_P2
2022/01/17 00:01:52;;;;;;;26.47;14.60;;;;;;;;;;4905004;29;20191;-75
2022/01/17 00:04:18;;;;;;;27.30;16.10;;;;;;;;;;4920394;29;20197;-75
2022/01/17 00:06:44;;;;;;;23.90;13.93;;;;;;;;;;4905194;29;20277;-74
2022/01/17 00:09:12;;;;;;;26.17;14.47;;;;;;;;;;4920907;29;20189;-74
2022/01/17 00:11:42;;;;;;;23.47;14.17;;;;;;;;;;4920813;29;20186;-75
2022/01/17 00:14:13;;;;;;;24.27;13.67;;;;;;;;;;4905401;29;20190;-75
2022/01/17 00:16:44;;;;;;;25.63;14.70;;;;;;;;;;4905417;29;20309;-75
2022/01/17 00:21:51;;;;;;;21.77;12.53;;;;;;;;;;4907284;29;20178;-75
2022/01/17 00:24:21;;;;;;;22.63;13.20;;;;;;;;;;4920003;29;20179;-75
2022/01/17 00:26:47;;;;;;;18.57;11.23;;;;;;;;;;4920544;29;20186;-75
2022/01/17 00:29:13;;;;;;;16.77;10.93;;;;;;;;;;4920379;29;20209;-75
2022/01/17 00:31:39;;;;;;;16.10;10.60;;;;;;;;;;4917754;29;20251;-75
2022/01/17 00:34:05;;;;;;;15.73;10.07;;;;;;;;;;4917528;29;20641;-75
2022/01/17 00:36:31;;;;;;;15.43;10.47;;;;;;;;;;4901838;29;20213;-75
2022/01/17 00:38:57;;;;;;;16.20;10.07;;;;;;;;;;4901679;29;20257;-75
2022/01/17 00:41:23;;;;;;;18.80;11.43;;;;;;;;;;4917333;29;20182;-75
2022/01/17 00:43:50;;;;;;;16.07;10.90;;;;;;;;;;4917365;29;20179;-75
2022/01/17 00:46:16;;;;;;;16.43;10.70;;;;;;;;;;4917454;29;20187;-75
2022/01/17 00:48:42;;;;;;;17.70;11.43;;;;;;;;;;4901641;29;20210;-75
2022/01/17 00:51:08;;;;;;;17.53;11.47;;;;;;;;;;4901715;29;20353;-75
2022/01/17 00:53:37;;;;;;;19.03;11.70;;;;;;;;;;4901482;29;20197;-74
2022/01/17 00:56:03;;;;;;;18.07;11.40;;;;;;;;;;4916959;29;20203;-75
2022/01/17 00:58:29;;;;;;;18.43;11.30;;;;;;;;;;4901590;29;20202;-75
2022/01/17 01:00:55;;;;;;;19.20;11.77;;;;;;;;;;4901567;29;20190;-75
2022/01/17 01:03:21;;;;;;;22.97;12.93;;;;;;;;;;4901137;29;20189;-75
2022/01/17 01:05:47;;;;;;;19.33;12.10;;;;;;;;;;4901467;29;20668;-75
2022/01/17 01:08:13;;;;;;;18.80;12.60;;;;;;;;;;4917229;29;20198;-75
2022/01/17 01:10:39;;;;;;;17.43;11.67;;;;;;;;;;4916687;29;20280;-75
2022/01/17 01:13:06;;;;;;;18.37;11.87;;;;;;;;;;4901309;29;20222;-75
2022/01/17 01:15:47;;;;;;;16.53;11.47;;;;;;;;;;4916753;29;20211;-75
2022/01/17 01:18:30;;;;;;;19.67;11.73;;;;;;;;;;4903125;29;20203;-74
2022/01/17 01:21:24;;;;;;;18.37;11.47;;;;;;;;;;4916801;29;20229;-76
2022/01/17 01:29:17;;;;;;;18.77;11.93;;;;;;;;;;4903767;29;20231;-75
2022/01/17 01:31:51;;;;;;;19.30;10.87;;;;;;;;;;4900898;29;20198;-75
2022/01/17 01:34:21;;;;;;;17.00;10.57;;;;;;;;;;4916224;29;20700;-75
2022/01/17 01:36:48;;;;;;;17.77;11.03;;;;;;;;;;4916338;29;20218;-75
2022/01/17 01:39:23;;;;;;;17.77;10.13;;;;;;;;;;4916384;29;20190;-75
2022/01/17 01:41:49;;;;;;;17.37;10.97;;;;;;;;;;4916187;29;20573;-75
2022/01/17 01:44:16;;;;;;;17.90;10.87;;;;;;;;;;4915977;29;20656;-75
2022/01/17 01:46:42;;;;;;;15.37;10.63;;;;;;;;;;4900694;29;20187;-75
2022/01/17 01:49:08;;;;;;;16.37;10.13;;;;;;;;;;4900695;29;20206;-75
2022/01/17 01:51:34;;;;;;;17.70;10.27;;;;;;;;;;4900597;29;20190;-75
2022/01/17 01:54:01;;;;;;;16.77;9.97;;;;;;;;;;4916069;29;20195;-75
2022/01/17 01:56:27;;;;;;;15.23;9.57;;;;;;;;;;4900378;29;20206;-74
2022/01/17 01:58:53;;;;;;;15.17;9.87;;;;;;;;;;4900451;29;20296;-75
2022/01/17 02:01:19;;;;;;;14.90;9.30;;;;;;;;;;4916067;29;20275;-75
2022/01/17 02:03:45;;;;;;;18.30;9.97;;;;;;;;;;4915711;29;20660;-75
2022/01/17 02:06:11;;;;;;;16.67;9.90;;;;;;;;;;4900599;29;20192;-75
2022/01/17 02:08:37;;;;;;;15.63;9.70;;;;;;;;;;4915916;29;20231;-75
2022/01/17 02:11:03;;;;;;;15.77;10.20;;;;;;;;;;4900046;29;20546;-75
2022/01/17 02:13:29;;;;;;;18.33;10.67;;;;;;;;;;4915837;29;20249;-75
2022/01/17 02:16:05;;;;;;;16.37;10.43;;;;;;;;;;4900130;29;20238;-75
2022/01/17 02:18:31;;;;;;;17.20;10.37;;;;;;;;;;4900103;29;20218;-74
2022/01/17 02:23:44;;;;;;;15.70;9.70;;;;;;;;;;4901888;29;20560;-75
2022/01/17 02:26:10;;;;;;;16.00;9.63;;;;;;;;;;4915380;29;20195;-75
2022/01/17 02:28:37;;;;;;;15.77;9.93;;;;;;;;;;4899988;29;20215;-75
2022/01/17 02:31:07;;;;;;;15.67;9.50;;;;;;;;;;4899782;29;20186;-75
2022/01/17 02:33:33;;;;;;;16.70;10.10;;;;;;;;;;4899822;29;20188;-74
2022/01/17 02:36:00;;;;;;;13.87;7.90;;;;;;;;;;4915382;29;20203;-74
2022/01/17 02:38:26;;;;;;;13.67;8.27;;;;;;;;;;4899482;29;20217;-76
2022/01/17 02:40:52;;;;;;;13.97;8.63;;;;;;;;;;4915262;29;20225;-76
2022/01/17 02:43:21;;;;;;;13.63;8.97;;;;;;;;;;4899691;29;20273;-75
2022/01/17 02:48:24;;;;;;;13.00;8.03;;;;;;;;;;4916464;29;20202;-74
2022/01/17 02:50:50;;;;;;;12.57;7.87;;;;;;;;;;4899416;29;20210;-77
2022/01/17 02:53:16;;;;;;;10.60;7.53;;;;;;;;;;4914884;29;20187;-75
2022/01/17 02:56:02;;;;;;;12.40;8.00;;;;;;;;;;4899014;29;20210;-75
2022/01/17 02:58:32;;;;;;;10.33;6.63;;;;;;;;;;4915069;29;20198;-76
2022/01/17 03:00:58;;;;;;;12.23;7.67;;;;;;;;;;4899809;29;20204;-74
2022/01/17 03:03:25;;;;;;;9.93;7.03;;;;;;;;;;4914873;29;20186;-75
2022/01/17 03:05:52;;;;;;;11.53;7.13;;;;;;;;;;4899543;29;20185;-74
2022/01/17 03:08:20;;;;;;;9.70;6.80;;;;;;;;;;4915008;29;20263;-77
2022/01/17 03:10:50;;;;;;;9.27;6.37;;;;;;;;;;4914998;29;20283;-74
2022/01/17 03:13:19;;;;;;;10.23;6.07;;;;;;;;;;4899045;29;20564;-75
2022/01/17 03:15:46;;;;;;;10.23;6.70;;;;;;;;;;4914626;29;20217;-76
2022/01/17 03:18:12;;;;;;;10.37;6.60;;;;;;;;;;4899068;29;20204;-74
2022/01/17 03:20:39;;;;;;;11.23;7.10;;;;;;;;;;4914958;29;20185;-75
2022/01/17 03:23:05;;;;;;;9.67;6.90;;;;;;;;;;4914681;29;20662;-74
2022/01/17 03:25:31;;;;;;;10.93;7.30;;;;;;;;;;4914329;29;20178;-75
2022/01/17 03:27:58;;;;;;;9.90;6.97;;;;;;;;;;4899043;29;20208;-75
2022/01/17 03:30:24;;;;;;;12.50;7.80;;;;;;;;;;4898866;29;20641;-75
2022/01/17 03:32:50;;;;;;;13.57;8.17;;;;;;;;;;4899018;29;20190;-75
2022/01/17 03:35:16;;;;;;;11.93;7.50;;;;;;;;;;4914410;29;20200;-75
2022/01/17 03:37:44;;;;;;;13.40;8.30;;;;;;;;;;4914647;29;20214;-75
2022/01/17 03:40:10;;;;;;;13.47;8.30;;;;;;;;;;4914675;29;20180;-75
2022/01/17 03:42:36;;;;;;;12.17;7.37;;;;;;;;;;4914542;29;20179;-75
2022/01/17 03:45:07;;;;;;;13.10;7.80;;;;;;;;;;4914259;29;20198;-75
2022/01/17 03:47:34;;;;;;;13.20;7.70;;;;;;;;;;4914684;29;20567;-74
2022/01/17 03:50:00;;;;;;;11.27;6.40;;;;;;;;;;4899218;29;20255;-75
2022/01/17 03:52:26;;;;;;;12.47;8.07;;;;;;;;;;4914586;29;20192;-75
2022/01/17 03:54:52;;;;;;;12.07;8.07;;;;;;;;;;4898719;29;20191;-75
2022/01/17 03:57:18;;;;;;;13.10;8.00;;;;;;;;;;4914396;29;20198;-75
2022/01/17 03:59:44;;;;;;;17.17;9.90;;;;;;;;;;4914645;29;20291;-75
2022/01/17 04:02:10;;;;;;;14.80;9.57;;;;;;;;;;4898794;29;20180;-75
2022/01/17 04:04:36;;;;;;;17.53;10.27;;;;;;;;;;4914298;29;20276;-75
2022/01/17 04:07:02;;;;;;;20.07;10.73;;;;;;;;;;4916164;29;20324;-75
2022/01/17 04:09:28;;;;;;;16.50;10.47;;;;;;;;;;4902375;29;20279;-75
2022/01/17 04:11:54;;;;;;;18.43;10.73;;;;;;;;;;4902279;29;20199;-75
2022/01/17 04:14:20;;;;;;;19.20;12.07;;;;;;;;;;4902150;29;20188;-75
2022/01/17 04:16:46;;;;;;;19.87;11.33;;;;;;;;;;4902211;29;20210;-76
2022/01/17 04:19:12;;;;;;;19.40;12.20;;;;;;;;;;4902334;29;20184;-76
2022/01/17 04:21:39;;;;;;;18.00;11.23;;;;;;;;;;4918087;29;20185;-75
2022/01/17 04:24:05;;;;;;;19.33;11.23;;;;;;;;;;4901535;29;20190;-75
2022/01/17 04:26:31;;;;;;;18.07;11.53;;;;;;;;;;4917551;29;20190;-75
2022/01/17 04:28:57;;;;;;;19.20;12.17;;;;;;;;;;4902185;29;20245;-76
2022/01/17 04:31:23;;;;;;;17.27;10.57;;;;;;;;;;4902061;29;20223;-75
2022/01/17 04:33:49;;;;;;;19.30;11.40;;;;;;;;;;4901756;29;20212;-75
2022/01/17 04:36:15;;;;;;;18.67;11.07;;;;;;;;;;4917588;29;20275;-75
2022/01/17 04:38:41;;;;;;;18.87;11.20;;;;;;;;;;4901557;29;20746;-75
2022/01/17 04:41:16;;;;;;;19.03;11.53;;;;;;;;;;4901689;29;20188;-75
2022/01/17 04:46:09;;;;;;;18.67;11.13;;;;;;;;;;4901948;29;20202;-74
2022/01/17 04:48:36;;;;;;;18.93;10.63;;;;;;;;;;4917315;29;20583;-75
2022/01/17 04:51:02;;;;;;;16.13;10.37;;;;;;;;;;4901579;29;20207;-75
2022/01/17 04:53:29;;;;;;;18.30;10.97;;;;;;;;;;4916910;29;20616;-75
2022/01/17 04:55:55;;;;;;;19.30;11.03;;;;;;;;;;4917026;29;20684;-75
2022/01/17 04:58:21;;;;;;;17.53;10.50;;;;;;;;;;4917070;29;20234;-75
2022/01/17 05:00:47;;;;;;;17.23;10.20;;;;;;;;;;4917127;29;20219;-75
2022/01/17 05:03:23;;;;;;;18.33;10.33;;;;;;;;;;4916968;29;20713;-75
2022/01/17 05:05:50;;;;;;;16.70;10.13;;;;;;;;;;4917132;29;20188;-75
2022/01/17 05:08:16;;;;;;;17.00;10.00;;;;;;;;;;4916659;29;20199;-75
2022/01/17 05:10:46;;;;;;;16.83;10.40;;;;;;;;;;4917067;29;20182;-75
2022/01/17 05:13:17;;;;;;;16.80;10.30;;;;;;;;;;4916645;29;20184;-75
2022/01/17 05:15:49;;;;;;;13.80;8.80;;;;;;;;;;4901899;29;20347;-75
2022/01/17 05:19:48;;;;;;;14.57;9.33;;;;;;;;;;4901566;29;20616;-74
2022/01/17 05:21:10;;;;;;;15.07;9.57;;;;;;;;;;4917894;29;20643;-75
2022/01/17 05:23:36;;;;;;;17.17;9.90;;;;;;;;;;4901188;29;20190;-75
2022/01/17 05:26:02;;;;;;;16.47;9.50;;;;;;;;;;4900813;29;20186;-75
2022/01/17 05:28:28;;;;;;;17.37;10.67;;;;;;;;;;4916528;29;20203;-75
2022/01/17 05:30:54;;;;;;;15.97;10.40;;;;;;;;;;4900951;29;20195;-75
2022/01/17 05:33:20;;;;;;;18.30;10.30;;;;;;;;;;4900537;29;20670;-75
2022/01/17 05:35:46;;;;;;;14.10;9.33;;;;;;;;;;4900832;29;20222;-75
2022/01/17 05:38:12;;;;;;;14.57;9.47;;;;;;;;;;4900678;29;20230;-75
2022/01/17 05:40:39;;;;;;;15.33;9.30;;;;;;;;;;4900898;29;20204;-75
2022/01/17 05:43:05;;;;;;;16.77;9.30;;;;;;;;;;4916252;29;20635;-75
2022/01/17 05:45:31;;;;;;;13.47;8.87;;;;;;;;;;4900566;29;20197;-75
2022/01/17 05:47:57;;;;;;;13.60;8.13;;;;;;;;;;4900531;29;20207;-75
2022/01/17 05:50:23;;;;;;;13.10;8.10;;;;;;;;;;4917033;29;20180;-75
2022/01/17 05:52:49;;;;;;;13.03;7.80;;;;;;;;;;4900638;29;20220;-75
2022/01/17 05:55:15;;;;;;;9.73;6.33;;;;;;;;;;4900458;29;20701;-75
2022/01/17 05:57:41;;;;;;;9.90;6.30;;;;;;;;;;4915892;29;20616;-75
2022/01/17 06:00:09;;;;;;;11.10;6.63;;;;;;;;;;4900257;29;20643;-75
2022/01/17 06:02:35;;;;;;;9.77;6.27;;;;;;;;;;4915983;29;20208;-75
2022/01/17 06:05:01;;;;;;;9.70;6.40;;;;;;;;;;4900190;29;20187;-74
2022/01/17 06:07:27;;;;;;;9.50;5.93;;;;;;;;;;4915800;29;20201;-75
2022/01/17 06:09:53;;;;;;;9.27;6.50;;;;;;;;;;4900079;29;20244;-75
2022/01/17 06:12:20;;;;;;;9.03;5.17;;;;;;;;;;4915713;29;20212;-76
2022/01/17 06:14:46;;;;;;;10.50;7.03;;;;;;;;;;4899783;29;20239;-78
2022/01/17 06:17:13;;;;;;;18.53;15.00;;;;;;;;;;4915514;29;20204;-77
2022/01/17 06:19:39;;;;;;;10.63;6.50;;;;;;;;;;4900104;29;20195;-76
2022/01/17 06:22:05;;;;;;;10.13;6.53;;;;;;;;;;4915679;29;20172;-77
2022/01/17 06:24:31;;;;;;;12.80;8.00;;;;;;;;;;4915087;29;20187;-78
2022/01/17 06:26:58;;;;;;;11.17;6.20;;;;;;;;;;4899816;29;20214;-76
2022/01/17 06:29:25;;;;;;;11.03;6.57;;;;;;;;;;4914661;29;20650;-75
2022/01/17 06:31:51;;;;;;;9.57;6.63;;;;;;;;;;4915524;29;20181;-76
2022/01/17 06:34:17;;;;;;;11.30;6.63;;;;;;;;;;4899655;29;20188;-76
2022/01/17 06:36:43;;;;;;;10.63;5.80;;;;;;;;;;4915332;29;20300;-76
2022/01/17 06:39:11;;;;;;;10.20;6.13;;;;;;;;;;4915162;29;20220;-76
2022/01/17 06:41:37;;;;;;;11.83;6.90;;;;;;;;;;4899605;29;20323;-75
2022/01/17 06:44:03;;;;;;;13.50;7.00;;;;;;;;;;4899224;29;20643;-75
2022/01/17 06:46:30;;;;;;;10.67;6.50;;;;;;;;;;4899540;29;20188;-77
2022/01/17 06:48:56;;;;;;;9.30;6.07;;;;;;;;;;4915027;29;20204;-76
2022/01/17 06:51:22;;;;;;;11.37;7.17;;;;;;;;;;4899661;29;20192;-75
2022/01/17 06:53:50;;;;;;;11.03;6.27;;;;;;;;;;4915193;29;20185;-75
2022/01/17 06:56:16;;;;;;;10.60;6.40;;;;;;;;;;4899629;29;20216;-75
2022/01/17 06:58:44;;;;;;;11.80;6.30;;;;;;;;;;4914831;29;20286;-75
2022/01/17 07:01:10;;;;;;;11.70;6.27;;;;;;;;;;4915156;29;20214;-75
2022/01/17 07:03:37;;;;;;;10.73;6.50;;;;;;;;;;4914850;29;20223;-77
2022/01/17 07:06:03;;;;;;;9.80;5.67;;;;;;;;;;4899394;29;20206;-75
2022/01/17 07:08:29;;;;;;;9.17;5.43;;;;;;;;;;4914955;29;20303;-75
2022/01/17 07:10:55;;;;;;;9.53;6.93;;;;;;;;;;4899190;29;20180;-75
2022/01/17 07:13:21;;;;;;;9.03;6.00;;;;;;;;;;4899063;29;20204;-75
2022/01/17 07:15:48;;;;;;;11.27;6.47;;;;;;;;;;4899116;29;20254;-76
2022/01/17 07:18:14;;;;;;;13.10;7.37;;;;;;;;;;4914871;29;20572;-75
2022/01/17 07:20:41;;;;;;;10.20;6.47;;;;;;;;;;4899308;29;20185;-75
2022/01/17 07:23:07;;;;;;;11.73;6.63;;;;;;;;;;4914716;29;20187;-74
2022/01/17 07:25:38;;;;;;;13.40;6.80;;;;;;;;;;4898609;29;20209;-75
2022/01/17 07:28:04;;;;;;;12.60;6.20;;;;;;;;;;4915069;29;20212;-75
2022/01/17 07:30:30;;;;;;;13.93;7.63;;;;;;;;;;4898908;29;20196;-78
2022/01/17 07:32:56;;;;;;;11.17;6.77;;;;;;;;;;4899103;29;20191;-76
2022/01/17 07:35:22;;;;;;;13.87;8.30;;;;;;;;;;4898690;29;20325;-77
2022/01/17 07:37:48;;;;;;;13.00;8.20;;;;;;;;;;4914476;29;20213;-77
2022/01/17 07:40:14;;;;;;;16.50;9.17;;;;;;;;;;4899535;29;20248;-76
2022/01/17 07:42:40;;;;;;;13.03;6.40;;;;;;;;;;4918640;29;20181;-76
2022/01/17 07:45:12;;;;;;;20.37;10.50;;;;;;;;;;4902629;29;20684;-74
2022/01/17 07:47:44;;;;;;;11.43;5.70;;;;;;;;;;4918500;29;20199;-76
2022/01/17 07:50:17;;;;;;;19.93;10.13;;;;;;;;;;4918463;29;20188;-75
2022/01/17 07:52:43;;;;;;;14.50;7.97;;;;;;;;;;4918269;29;20189;-77
2022/01/17 07:55:10;;;;;;;12.53;6.30;;;;;;;;;;4917916;29;20205;-77
2022/01/17 07:57:38;;;;;;;14.87;7.00;;;;;;;;;;4918147;29;20736;-77
2022/01/17 08:00:06;;;;;;;19.57;9.30;;;;;;;;;;4918284;29;20325;-76
2022/01/17 08:02:33;;;;;;;15.03;8.10;;;;;;;;;;4902629;29;20192;-75
2022/01/17 08:04:59;;;;;;;14.33;8.27;;;;;;;;;;4917951;29;20273;-76
2022/01/17 08:07:25;;;;;;;12.73;6.70;;;;;;;;;;4917776;29;20203;-78
2022/01/17 08:09:51;;;;;;;12.63;7.03;;;;;;;;;;4917914;29;20275;-81
2022/01/17 08:12:17;;;;;;;14.67;8.03;;;;;;;;;;4918100;29;20550;-78
2022/01/17 08:14:43;;;;;;;13.33;6.77;;;;;;;;;;4917858;29;20185;-78
2022/01/17 08:17:10;;;;;;;10.63;6.20;;;;;;;;;;4917747;29;20724;-76
2022/01/17 08:19:36;;;;;;;11.20;6.43;;;;;;;;;;4902257;29;20181;-76
2022/01/17 08:22:04;;;;;;;10.43;6.30;;;;;;;;;;4917588;29;20191;-75
2022/01/17 08:24:30;;;;;;;14.27;6.83;;;;;;;;;;4917651;29;20191;-76
2022/01/17 08:26:56;;;;;;;14.00;8.23;;;;;;;;;;4917892;29;20190;-76
2022/01/17 08:29:25;;;;;;;14.37;7.50;;;;;;;;;;4917603;29;20184;-75
2022/01/17 08:31:51;;;;;;;11.57;6.67;;;;;;;;;;4902290;29;20201;-75
2022/01/17 08:34:17;;;;;;;12.03;7.10;;;;;;;;;;4917236;29;20241;-75
2022/01/17 08:36:44;;;;;;;13.63;7.13;;;;;;;;;;4917588;29;20252;-75
2022/01/17 08:39:10;;;;;;;13.40;7.47;;;;;;;;;;4901420;29;20700;-76
2022/01/17 08:41:37;;;;;;;16.60;7.73;;;;;;;;;;4901956;29;20190;-76
2022/01/17 08:44:03;;;;;;;14.60;6.87;;;;;;;;;;4901619;29;20205;-76
2022/01/17 08:46:29;;;;;;;14.40;7.47;;;;;;;;;;4917218;29;20220;-75
2022/01/17 08:48:55;;;;;;;11.97;6.73;;;;;;;;;;4917042;29;20244;-75
2022/01/17 08:51:21;;;;;;;10.43;6.37;;;;;;;;;;4901603;29;20288;-75
2022/01/17 08:53:47;;;;;;;11.83;6.00;;;;;;;;;;4900907;29;20197;-75
2022/01/17 08:56:13;;;;;;;12.63;6.60;;;;;;;;;;4901527;29;20213;-75
2022/01/17 08:58:39;;;;;;;10.30;5.80;;;;;;;;;;4917156;29;20568;-75
2022/01/17 09:01:05;;;;;;;11.10;5.63;;;;;;;;;;4901393;29;20185;-75
2022/01/17 09:03:31;;;;;;;13.90;8.27;;;;;;;;;;4901134;29;20564;-75
2022/01/17 09:05:57;;;;;;;11.73;6.43;;;;;;;;;;4901304;29;20185;-76
2022/01/17 09:08:23;;;;;;;9.20;5.70;;;;;;;;;;4901653;29;20248;-76
2022/01/17 09:10:51;;;;;;;18.13;6.17;;;;;;;;;;4901178;29;20186;-75
2022/01/17 09:13:18;;;;;;;11.27;5.47;;;;;;;;;;4916689;29;20190;-76
2022/01/17 09:15:45;;;;;;;8.73;4.90;;;;;;;;;;4916694;29;20353;-75
2022/01/17 09:18:14;;;;;;;16.03;5.97;;;;;;;;;;4916631;29;20248;-75
2022/01/17 09:20:40;;;;;;;11.67;6.00;;;;;;;;;;4916998;29;20185;-77
2022/01/17 09:23:07;;;;;;;10.97;5.60;;;;;;;;;;4916621;29;20185;-74
2022/01/17 09:25:34;;;;;;;11.37;4.90;;;;;;;;;;4916241;29;20190;-78
2022/01/17 09:28:00;;;;;;;11.57;5.93;;;;;;;;;;4900891;29;20237;-75
2022/01/17 09:30:26;;;;;;;14.30;6.83;;;;;;;;;;4916566;29;20187;-75
2022/01/17 09:32:53;;;;;;;9.67;6.17;;;;;;;;;;4916309;29;20276;-75
2022/01/17 09:35:19;;;;;;;12.03;5.97;;;;;;;;;;4900512;29;20245;-76
2022/01/17 09:37:45;;;;;;;14.57;7.03;;;;;;;;;;4900688;29;20248;-76
2022/01/17 09:40:15;;;;;;;9.73;5.17;;;;;;;;;;4900519;29;20232;-76
2022/01/17 09:42:41;;;;;;;7.33;4.77;;;;;;;;;;4916708;29;20173;-76
2022/01/17 09:45:11;;;;;;;12.70;6.13;;;;;;;;;;4900407;29;20182;-78
2022/01/17 09:47:38;;;;;;;10.13;5.50;;;;;;;;;;4916471;29;20672;-75
2022/01/17 09:50:08;;;;;;;12.23;5.17;;;;;;;;;;4900745;29;20186;-76
2022/01/17 09:52:35;;;;;;;8.27;4.87;;;;;;;;;;4900671;29;20182;-75
2022/01/17 09:55:33;;;;;;;9.23;5.03;;;;;;;;;;4915704;29;20186;-76
2022/01/17 09:58:07;;;;;;;10.13;4.93;;;;;;;;;;4869441;29;20253;-77
2022/01/17 10:00:35;;;;;;;11.90;4.87;;;;;;;;;;4916129;29;20207;-76
2022/01/17 10:03:05;;;;;;;7.77;4.40;;;;;;;;;;4900385;29;20224;-75
2022/01/17 10:05:32;;;;;;;10.20;4.83;;;;;;;;;;4915701;29;20189;-78
2022/01/17 10:08:04;;;;;;;7.57;5.13;;;;;;;;;;4915717;29;20201;-76
2022/01/17 10:10:42;;;;;;;8.63;4.50;;;;;;;;;;4915804;29;20193;-76
2022/01/17 10:13:09;;;;;;;9.37;4.70;;;;;;;;;;4915897;29;20205;-77
2022/01/17 10:16:08;;;;;;;8.97;4.40;;;;;;;;;;4915648;29;20233;-76
2022/01/17 10:18:46;;;;;;;7.77;4.50;;;;;;;;;;4916538;29;20198;-76
2022/01/17 10:21:26;;;;;;;9.63;4.63;;;;;;;;;;4915756;29;20217;-76
2022/01/17 10:35:32;;;;;;;10.63;4.87;;;;;;;;;;4915168;29;20237;-76
2022/01/17 10:38:04;;;;;;;7.93;4.90;;;;;;;;;;4899746;29;20218;-76
2022/01/17 10:40:50;;;;;;;8.97;4.70;;;;;;;;;;4915274;29;20607;-76
2022/01/17 10:43:34;;;;;;;11.93;5.23;;;;;;;;;;4899104;29;20219;-79
2022/01/17 10:46:01;;;;;;;11.13;6.50;;;;;;;;;;4900286;29;20205;-77
2022/01/17 10:48:51;;;;;;;8.03;4.90;;;;;;;;;;4915309;29;20243;-76
2022/01/17 10:51:26;;;;;;;8.27;4.83;;;;;;;;;;4915273;29;20557;-76
2022/01/17 10:53:52;;;;;;;9.17;5.30;;;;;;;;;;4915001;29;20192;-76
2022/01/17 10:56:18;;;;;;;9.13;4.37;;;;;;;;;;4914813;29;20233;-79
2022/01/17 10:58:44;;;;;;;7.13;4.57;;;;;;;;;;4915244;29;20194;-75
2022/01/17 11:01:12;;;;;;;10.70;5.10;;;;;;;;;;4899508;29;20213;-76
2022/01/17 11:03:39;;;;;;;9.93;5.23;;;;;;;;;;4914955;29;20209;-76
2022/01/17 11:06:07;;;;;;;9.33;5.90;;;;;;;;;;4914908;29;20284;-75
2022/01/17 11:08:34;;;;;;;14.90;7.97;;;;;;;;;;4899173;29;20214;-76
2022/01/17 11:11:02;;;;;;;15.67;8.67;;;;;;;;;;4899518;29;20190;-75
2022/01/17 11:13:32;;;;;;;10.30;5.60;;;;;;;;;;4914840;29;20211;-75
2022/01/17 11:15:59;;;;;;;7.33;4.43;;;;;;;;;;4914510;29;20213;-75
2022/01/17 11:18:27;;;;;;;7.93;5.67;;;;;;;;;;4899105;29;20214;-74
2022/01/17 11:20:58;;;;;;;7.50;4.93;;;;;;;;;;4899232;29;20197;-75
2022/01/17 11:23:25;;;;;;;10.13;6.40;;;;;;;;;;4914716;29;20185;-76
2022/01/17 11:25:54;;;;;;;10.73;6.10;;;;;;;;;;4899267;29;20588;-76
2022/01/17 11:28:24;;;;;;;8.40;5.90;;;;;;;;;;4899426;29;20601;-75
2022/01/17 11:30:51;;;;;;;12.87;7.00;;;;;;;;;;4899517;29;20193;-75
2022/01/17 11:33:17;;;;;;;10.83;6.53;;;;;;;;;;4914606;29;20566;-76
2022/01/17 11:35:46;;;;;;;11.57;7.00;;;;;;;;;;4914346;29;20296;-77
2022/01/17 11:38:14;;;;;;;15.43;7.43;;;;;;;;;;4914551;29;20687;-75
2022/01/17 11:40:41;;;;;;;7.80;6.07;;;;;;;;;;4914849;29;20678;-75
2022/01/17 11:43:18;;;;;;;9.83;5.37;;;;;;;;;;4914607;29;20200;-75
2022/01/17 11:45:45;;;;;;;11.43;6.00;;;;;;;;;;4914724;29;20189;-79
2022/01/17 11:48:22;;;;;;;6.47;4.33;;;;;;;;;;4914407;29;20206;-76
2022/01/17 11:50:50;;;;;;;9.13;5.93;;;;;;;;;;4942045;23;20323;-78
2022/01/17 11:53:16;;;;;;;9.60;6.20;;;;;;;;;;4902271;29;20186;-78
2022/01/17 11:55:42;;;;;;;10.63;6.17;;;;;;;;;;4917931;29;20240;-78
2022/01/17 11:58:22;;;;;;;12.07;6.63;;;;;;;;;;4917816;29;20212;-78
2022/01/17 12:00:49;;;;;;;11.13;5.97;;;;;;;;;;4934931;29;20309;-77
2022/01/17 12:03:19;;;;;;;10.73;6.60;;;;;;;;;;4901918;29;20184;-79
2022/01/17 12:05:45;;;;;;;8.13;6.03;;;;;;;;;;4918018;29;20248;-76
2022/01/17 12:08:14;;;;;;;10.97;6.13;;;;;;;;;;4917685;29;20196;-73
2022/01/17 12:10:45;;;;;;;11.30;6.60;;;;;;;;;;4934575;29;20174;-72
2022/01/17 12:13:12;;;;;;;8.53;6.10;;;;;;;;;;4917467;29;20178;-78
2022/01/17 12:16:12;;;;;;;12.13;6.63;;;;;;;;;;4918989;29;20209;-77
2022/01/17 12:18:40;;;;;;;12.40;7.80;;;;;;;;;;4918628;29;20189;-78
2022/01/17 12:21:28;;;;;;;12.03;6.43;;;;;;;;;;4935600;29;20276;-77
2022/01/17 12:24:14;;;;;;;8.43;5.60;;;;;;;;;;4935786;29;20321;-77
2022/01/17 12:26:40;;;;;;;10.53;6.83;;;;;;;;;;4919178;29;20182;-78
2022/01/17 12:29:06;;;;;;;9.83;6.13;;;;;;;;;;4906562;29;20193;-77
2022/01/17 12:31:43;;;;;;;12.00;7.13;;;;;;;;;;4922362;29;20568;-78
2022/01/17 12:34:17;;;;;;;10.10;5.90;;;;;;;;;;4921872;29;20194;-78
2022/01/17 12:36:46;;;;;;;10.77;6.30;;;;;;;;;;4906411;29;20220;-77
2022/01/17 12:39:14;;;;;;;9.83;6.70;;;;;;;;;;4907548;29;20649;-78
2022/01/17 12:41:41;;;;;;;13.20;7.53;;;;;;;;;;4906165;29;20764;-77
2022/01/17 12:44:13;;;;;;;11.17;6.87;;;;;;;;;;4921654;29;20555;-78
2022/01/17 12:46:41;;;;;;;13.30;6.40;;;;;;;;;;4921985;29;20215;-78
2022/01/17 12:49:07;;;;;;;9.70;6.70;;;;;;;;;;4906180;29;20550;-77
2022/01/17 12:51:33;;;;;;;9.13;5.53;;;;;;;;;;4921425;29;20253;-78
2022/01/17 12:53:59;;;;;;;11.17;6.70;;;;;;;;;;4921524;29;20186;-78
2022/01/17 12:56:25;;;;;;;10.33;6.17;;;;;;;;;;4921434;29;20201;-78
2022/01/17 12:58:51;;;;;;;11.13;6.60;;;;;;;;;;4921514;29;20185;-78
2022/01/17 13:01:18;;;;;;;11.93;6.77;;;;;;;;;;4905739;29;20198;-78
2022/01/17 13:03:46;;;;;;;9.57;5.97;;;;;;;;;;4938394;29;20182;-78
2022/01/17 13:06:20;;;;;;;9.97;6.20;;;;;;;;;;4921289;29;20669;-78
2022/01/17 13:08:47;;;;;;;9.80;6.37;;;;;;;;;;4921251;29;20213;-78
2022/01/17 13:11:14;;;;;;;12.43;7.57;;;;;;;;;;4921126;29;20201;-78
2022/01/17 13:13:44;;;;;;;11.93;7.47;;;;;;;;;;4905561;29;20676;-78
2022/01/17 13:16:11;;;;;;;12.00;7.37;;;;;;;;;;4938272;29;20244;-78
2022/01/17 13:18:37;;;;;;;11.33;8.00;;;;;;;;;;4905706;29;20675;-78
2022/01/17 13:21:04;;;;;;;10.67;7.37;;;;;;;;;;4921028;29;20265;-78
2022/01/17 13:23:42;;;;;;;11.40;7.63;;;;;;;;;;4920965;29;20181;-78
2022/01/17 13:26:12;;;;;;;10.67;7.27;;;;;;;;;;4905673;29;20185;-77
2022/01/17 13:28:38;;;;;;;12.87;6.93;;;;;;;;;;4920879;29;20182;-78
2022/01/17 13:31:15;;;;;;;11.43;7.20;;;;;;;;;;4920679;29;20257;-77
2022/01/17 13:33:41;;;;;;;13.07;8.03;;;;;;;;;;4920089;29;20173;-78
2022/01/17 13:36:07;;;;;;;11.83;7.80;;;;;;;;;;4904638;29;20265;-79
2022/01/17 13:38:33;;;;;;;10.10;7.10;;;;;;;;;;4903954;29;20213;-77
2022/01/17 13:41:02;;;;;;;13.20;7.87;;;;;;;;;;4919952;29;20212;-76
2022/01/17 13:43:29;;;;;;;10.57;7.10;;;;;;;;;;4904039;29;20193;-76
2022/01/17 13:45:55;;;;;;;12.17;8.00;;;;;;;;;;4904097;29;20199;-77
2022/01/17 13:48:23;;;;;;;15.33;9.33;;;;;;;;;;4936662;29;20216;-76
2022/01/17 13:51:02;;;;;;;11.07;7.50;;;;;;;;;;4919449;29;20214;-75
2022/01/17 13:53:29;;;;;;;9.67;6.00;;;;;;;;;;4919506;29;20181;-75
2022/01/17 13:56:00;;;;;;;11.20;6.50;;;;;;;;;;4903788;29;20217;-76
2022/01/17 13:58:29;;;;;;;10.07;6.87;;;;;;;;;;4919293;29;20205;-75
2022/01/17 14:00:55;;;;;;;10.57;7.23;;;;;;;;;;4936025;29;20208;-76
2022/01/17 14:03:23;;;;;;;9.63;6.33;;;;;;;;;;4918964;29;20177;-76
2022/01/17 14:05:50;;;;;;;9.77;6.90;;;;;;;;;;4903200;29;20229;-75
2022/01/17 14:08:26;;;;;;;11.13;6.60;;;;;;;;;;4919165;29;20182;-75
2022/01/17 14:11:03;;;;;;;10.23;6.53;;;;;;;;;;4903338;29;20213;-75
2022/01/17 14:13:37;;;;;;;10.43;7.40;;;;;;;;;;4903055;29;20192;-76
2022/01/17 14:16:23;;;;;;;8.20;6.47;;;;;;;;;;4903143;29;20215;-76
2022/01/17 14:18:49;;;;;;;10.67;6.70;;;;;;;;;;4918746;29;20188;-76
2022/01/17 14:21:24;;;;;;;11.47;7.20;;;;;;;;;;4935770;29;20200;-75
2022/01/17 14:24:03;;;;;;;9.63;5.90;;;;;;;;;;4918566;29;20182;-76
2022/01/17 14:26:30;;;;;;;8.20;5.57;;;;;;;;;;4918633;29;20347;-76
2022/01/17 14:28:56;;;;;;;11.33;6.67;;;;;;;;;;4918582;29;20193;-76
2022/01/17 14:31:21;;;;;;;10.37;6.57;;;;;;;;;;4902996;29;20744;-76
2022/01/17 14:33:51;;;;;;;8.83;6.17;;;;;;;;;;4902798;29;20357;-76
2022/01/17 14:36:18;;;;;;;8.57;5.67;;;;;;;;;;4918437;29;20304;-75
2022/01/17 14:38:52;;;;;;;9.47;6.60;;;;;;;;;;4918551;29;20181;-76
2022/01/17 14:41:32;;;;;;;10.70;7.27;;;;;;;;;;4903066;29;20256;-76
2022/01/17 14:44:02;;;;;;;9.33;6.13;;;;;;;;;;4918589;29;20612;-75
2022/01/17 14:46:28;;;;;;;10.03;6.13;;;;;;;;;;4918447;29;20189;-76
2022/01/17 14:48:54;;;;;;;10.90;6.10;;;;;;;;;;4902776;29;20185;-76
2022/01/17 14:51:27;;;;;;;7.20;5.37;;;;;;;;;;4917696;29;20680;-76
2022/01/17 14:53:58;;;;;;;9.00;5.90;;;;;;;;;;4918175;29;20189;-75
2022/01/17 15:02:45;;;;;;;9.90;6.33;;;;;;;;;;4935453;29;20213;-76
2022/01/17 15:04:43;;;;;;;9.13;6.50;;;;;;;;;;4926937;29;20182;-76
2022/01/17 15:07:12;;;;;;;8.00;6.07;;;;;;;;;;4935143;29;20261;-76
2022/01/17 15:09:39;;;;;;;7.40;4.80;;;;;;;;;;4918057;29;20181;-76
2022/01/17 15:12:05;;;;;;;8.07;5.23;;;;;;;;;;4917845;29;20204;-76